Time;durP1;ratioP1;P1;durP2;ratioP2;P2;SDS_P1;SDS_P2;PMS_P1;PMS_P2;Temp;Humidity;BMP_temperature;BMP_pressure;BME280_temperature;BME280_humidity;BME280_pressure;Samples;Min_cycle;Max_cycle;Signal;HPM_P1;HPM_P2
2022/09/26 00:01:38;;;;;;;9.60;7.03;;;;;;;11.38;62.32;99362.84;5032654;28;20030;-74
2022/09/26 00:04:25;;;;;;;10.70;6.32;;;;;;;11.17;63.00;99357.25;5030676;28;20034;-74
2022/09/26 00:06:53;;;;;;;14.30;6.80;;;;;;;11.00;63.65;99349.81;5031972;28;20021;-75
2022/09/26 00:09:19;;;;;;;8.80;6.65;;;;;;;10.95;63.45;99336.84;5031867;28;20022;-74
2022/09/26 00:11:45;;;;;;;9.35;6.60;;;;;;;11.06;63.34;99326.03;5031846;28;20109;-74
2022/09/26 00:14:15;;;;;;;8.93;7.18;;;;;;;11.05;63.00;99335.59;5042056;28;20025;-73
2022/09/26 00:16:41;;;;;;;9.88;6.60;;;;;;;10.87;63.68;99343.31;5031449;28;20029;-74
2022/09/26 00:19:07;;;;;;;9.27;6.47;;;;;;;10.75;64.26;99344.06;5032375;28;20451;-74
2022/09/26 00:21:33;;;;;;;8.82;6.60;;;;;;;10.91;63.77;99329.47;5031894;28;20029;-74
2022/09/26 00:24:00;;;;;;;10.07;7.20;;;;;;;10.87;63.29;99325.72;5031327;28;20021;-75
2022/09/26 00:26:29;;;;;;;11.98;6.82;;;;;;;10.93;63.13;99324.34;5031127;28;20544;-70
2022/09/26 00:28:55;;;;;;;10.20;7.13;;;;;;;10.86;63.36;99315.66;5041821;28;20029;-74
2022/09/26 00:31:28;;;;;;;13.77;7.18;;;;;;;10.86;63.30;99319.28;5041768;28;20083;-74
2022/09/26 00:33:53;;;;;;;12.02;6.50;;;;;;;10.62;64.22;99301.19;5031856;28;20022;-74
2022/09/26 00:36:19;;;;;;;9.07;6.85;;;;;;;10.69;64.29;99311.84;5031883;28;20377;-74
2022/09/26 00:38:45;;;;;;;9.25;6.80;;;;;;;10.64;64.58;99309.25;5031625;28;20092;-74
2022/09/26 00:41:11;;;;;;;16.35;8.13;;;;;;;10.64;64.21;99298.06;5031757;28;20439;-75
2022/09/26 00:43:46;;;;;;;7.45;6.20;;;;;;;10.77;64.22;99305.38;5031667;28;20079;-74
2022/09/26 00:46:26;;;;;;;9.32;6.93;;;;;;;10.59;64.90;99323.41;5034469;28;20029;-75
2022/09/26 00:49:06;;;;;;;;;;;;;;;10.39;66.16;99306.25;5031341;28;20033;-74
2022/09/26 00:51:36;;;;;;;8.70;6.97;;;;;;;10.41;65.60;99303.97;5032228;28;20327;-75
2022/09/26 00:54:03;;;;;;;9.38;7.32;;;;;;;10.44;65.92;99305.25;5031344;28;20392;-74
2022/09/26 00:56:34;;;;;;;9.90;7.82;;;;;;;10.33;66.61;99288.03;5031588;28;20036;-75
2022/09/26 00:59:21;;;;;;;10.43;7.95;;;;;;;10.20;66.93;99296.31;5037454;28;20040;-75
2022/09/26 01:01:47;;;;;;;12.38;9.13;;;;;;;9.95;67.67;99298.91;5051312;28;20056;-74
2022/09/26 01:04:13;;;;;;;17.20;9.30;;;;;;;9.91;67.92;99294.31;5050245;28;20136;-74
2022/09/26 01:06:39;;;;;;;14.40;8.80;;;;;;;9.87;68.33;99310.91;5051384;28;20021;-74
2022/09/26 01:09:07;;;;;;;11.38;8.45;;;;;;;9.80;69.13;99296.66;5051401;28;20029;-75
2022/09/26 01:11:35;;;;;;;10.48;7.93;;;;;;;9.87;68.42;99290.56;5051321;28;20045;-74
2022/09/26 01:14:02;;;;;;;13.50;7.88;;;;;;;9.95;67.70;99298.06;5040521;28;20029;-73
2022/09/26 01:16:28;;;;;;;10.40;8.30;;;;;;;10.29;67.05;99287.06;5031116;28;20032;-75
2022/09/26 01:18:54;;;;;;;9.73;7.55;;;;;;;10.04;67.42;99293.25;5036602;28;20396;-75
2022/09/26 01:21:34;;;;;;;9.55;7.90;;;;;;;9.83;67.59;99298.78;5050453;28;20035;-74
2022/09/26 01:24:14;;;;;;;11.82;8.30;;;;;;;9.90;67.99;99315.84;5051249;28;20033;-75
2022/09/26 01:27:05;;;;;;;12.63;9.05;;;;;;;9.82;67.69;99316.69;5049718;28;20386;-74
2022/09/26 01:29:58;;;;;;;10.00;8.57;;;;;;;9.53;69.38;99312.66;5031348;28;20066;-75
2022/09/26 01:32:50;;;;;;;12.65;8.27;;;;;;;9.65;67.93;99315.59;5031251;28;20025;-74
2022/09/26 01:35:37;;;;;;;15.93;8.55;;;;;;;9.59;68.34;99316.09;5039071;28;20447;-74
2022/09/26 01:38:29;;;;;;;12.95;8.93;;;;;;;9.38;69.24;99323.19;5054517;28;20039;-75
2022/09/26 01:41:19;;;;;;;11.82;8.48;;;;;;;9.23;69.60;99329.28;5034076;28;20022;-76
2022/09/26 01:44:07;;;;;;;9.43;7.75;;;;;;;9.16;69.99;99329.78;5034520;28;20021;-75
2022/09/26 01:46:55;;;;;;;10.07;7.60;;;;;;;8.92;70.43;99317.16;5034523;28;20057;-75
2022/09/26 01:49:39;;;;;;;17.83;10.43;;;;;;;9.02;70.52;99332.72;5037196;28;20119;-75
2022/09/26 01:52:39;;;;;;;12.07;7.93;;;;;;;9.02;69.68;99324.38;5034453;28;20119;-75
2022/09/26 01:55:08;;;;;;;;;;;;;;;8.98;70.16;99326.97;5043875;28;20124;-73
2022/09/26 01:57:51;;;;;;;13.75;7.55;;;;;;;9.06;69.85;99322.56;5034518;28;19913;-75
2022/09/26 02:00:17;;;;;;;17.70;10.10;;;;;;;9.31;69.38;99331.25;5034433;28;20155;-75
2022/09/26 02:02:46;;;;;;;11.90;9.15;;;;;;;9.25;69.32;99327.00;5034048;28;20018;-75
2022/09/26 02:05:31;;;;;;;13.20;8.90;;;;;;;9.10;70.03;99317.97;5048272;28;20040;-73
2022/09/26 02:08:01;;;;;;;13.05;9.20;;;;;;;9.10;69.99;99312.38;5049551;28;20020;-75
2022/09/26 02:10:33;;;;;;;13.82;9.18;;;;;;;9.16;69.76;99321.41;5039514;28;20033;-75
2022/09/26 02:13:07;;;;;;;12.32;9.63;;;;;;;9.10;70.46;99323.56;5033939;28;20112;-73
2022/09/26 02:15:36;;;;;;;14.00;8.43;;;;;;;9.20;69.95;99327.97;5034217;28;20404;-75
2022/09/26 02:18:11;;;;;;;12.60;7.93;;;;;;;9.30;69.13;99320.41;5033461;28;20377;-75
2022/09/26 02:20:40;;;;;;;13.57;9.10;;;;;;;9.41;69.52;99333.72;5033304;28;20037;-75
2022/09/26 02:23:07;;;;;;;13.63;7.95;;;;;;;9.42;69.34;99331.72;5034092;28;20083;-76
2022/09/26 02:25:33;;;;;;;11.15;8.15;;;;;;;9.53;69.47;99335.81;5034101;28;20017;-75
2022/09/26 02:27:59;;;;;;;12.10;8.38;;;;;;;9.67;68.54;99332.00;5033532;28;20033;-76
2022/09/26 02:30:25;;;;;;;10.98;8.23;;;;;;;9.34;69.78;99327.81;5033829;28;20459;-75
2022/09/26 02:32:51;;;;;;;10.45;8.07;;;;;;;9.37;70.29;99327.13;5041170;28;20025;-75
2022/09/26 02:38:03;;;;;;;8.48;7.28;;;;;;;9.48;70.17;99324.00;5053472;28;20112;-75
2022/09/26 02:40:59;;;;;;;8.30;7.35;;;;;;;9.45;70.08;99319.09;5051602;28;20075;-74
2022/09/26 02:43:37;;;;;;;16.52;8.25;;;;;;;9.15;70.75;99316.16;5040527;28;20049;-74
2022/09/26 02:46:25;;;;;;;9.82;7.50;;;;;;;9.05;72.05;99320.94;5033741;28;20504;-75
2022/09/26 02:49:13;;;;;;;11.20;8.15;;;;;;;9.22;71.53;99313.69;5032811;28;20067;-75
2022/09/26 02:52:08;;;;;;;13.10;9.10;;;;;;;9.09;72.19;99310.75;5033402;28;20108;-74
2022/09/26 02:54:45;;;;;;;14.95;9.02;;;;;;;8.89;72.67;99295.50;5032079;28;20045;-74
2022/09/26 02:57:46;;;;;;;14.35;8.82;;;;;;;9.04;72.26;99302.53;5033151;28;20109;-75
2022/09/26 03:00:22;;;;;;;12.27;8.80;;;;;;;9.23;71.78;99304.16;5032065;28;20033;-75
2022/09/26 03:03:04;;;;;;;16.55;8.07;;;;;;;9.34;71.79;99294.31;5032599;28;20036;-74
2022/09/26 03:05:33;;;;;;;13.93;9.43;;;;;;;9.22;71.31;99303.34;5031944;28;20041;-75
2022/09/26 03:08:14;;;;;;;12.57;8.43;;;;;;;9.03;72.45;99300.91;5031816;28;20484;-75
2022/09/26 03:10:41;;;;;;;13.15;8.73;;;;;;;9.19;71.64;99298.44;5051392;28;20033;-74
2022/09/26 03:13:13;;;;;;;15.15;10.10;;;;;;;8.95;72.23;99283.00;5052841;28;20029;-76
2022/09/26 03:15:43;;;;;;;13.35;9.50;;;;;;;8.97;71.99;99285.47;5051493;28;20025;-70
2022/09/26 03:18:13;;;;;;;13.63;9.75;;;;;;;9.04;71.54;99287.78;5045974;28;20029;-75
2022/09/26 03:20:40;;;;;;;13.90;9.45;;;;;;;9.18;71.34;99284.81;5033639;28;20488;-75
2022/09/26 03:23:06;;;;;;;19.13;9.85;;;;;;;9.25;70.93;99279.53;5031157;28;20029;-76
2022/09/26 03:25:32;;;;;;;15.15;10.30;;;;;;;9.49;69.82;99276.22;5033033;28;20032;-76
2022/09/26 03:28:01;;;;;;;15.40;9.82;;;;;;;9.75;68.96;99272.53;5032577;28;20421;-76
2022/09/26 03:30:26;;;;;;;17.55;10.30;;;;;;;9.77;68.12;99266.59;5032711;28;20049;-75
2022/09/26 03:32:52;;;;;;;14.98;10.25;;;;;;;10.05;67.36;99260.56;5032518;28;20553;-74
2022/09/26 03:35:18;;;;;;;14.88;9.40;;;;;;;10.11;66.75;99254.44;5032713;28;20021;-76
2022/09/26 03:37:43;;;;;;;16.60;10.32;;;;;;;10.35;66.04;99257.75;5043478;28;20029;-75
2022/09/26 03:40:11;;;;;;;15.50;9.38;;;;;;;10.40;65.29;99249.19;5050044;28;20251;-76
2022/09/26 03:42:37;;;;;;;14.45;9.27;;;;;;;10.33;65.88;99251.69;5052202;28;20047;-75
2022/09/26 03:45:06;;;;;;;13.45;8.77;;;;;;;10.24;65.51;99260.94;5050916;28;20131;-75
2022/09/26 03:47:32;;;;;;;11.90;9.33;;;;;;;10.33;65.22;99255.31;5041159;28;20029;-76
2022/09/26 03:49:59;;;;;;;15.68;9.82;;;;;;;10.45;65.01;99256.56;5032762;28;20025;-78
2022/09/26 03:52:24;;;;;;;23.85;9.45;;;;;;;10.53;64.59;99250.09;5048784;28;20029;-78
2022/09/26 03:54:50;;;;;;;20.23;10.40;;;;;;;10.49;65.02;99251.94;5040373;28;20040;-81
2022/09/26 03:57:16;;;;;;;17.08;9.98;;;;;;;10.46;65.62;99253.44;5042359;28;20031;-76
2022/09/26 03:59:42;;;;;;;13.65;9.48;;;;;;;10.41;65.59;99250.84;5033366;28;20028;-78
2022/09/26 04:02:08;;;;;;;15.48;8.85;;;;;;;10.39;65.82;99236.34;5045419;28;20025;-77
2022/09/26 04:04:34;;;;;;;21.08;9.38;;;;;;;10.55;65.17;99235.78;5051928;28;20411;-77
2022/09/26 04:07:00;;;;;;;19.52;11.10;;;;;;;10.69;64.82;99255.09;5050764;28;20530;-76
2022/09/26 04:09:26;;;;;;;13.60;9.77;;;;;;;10.72;65.05;99244.00;5051675;28;20036;-76
2022/09/26 04:11:52;;;;;;;14.48;9.98;;;;;;;10.74;65.06;99257.66;5050471;28;20463;-74
2022/09/26 04:14:18;;;;;;;12.68;9.25;;;;;;;10.82;64.43;99252.00;5040002;28;20503;-76
2022/09/26 04:16:44;;;;;;;19.85;8.73;;;;;;;10.79;64.07;99266.69;5032720;28;20025;-80
2022/09/26 04:19:11;;;;;;;24.95;10.13;;;;;;;10.29;65.89;99259.91;5032415;28;20057;-79
2022/09/26 04:21:39;;;;;;;19.38;11.65;;;;;;;10.24;67.00;99266.50;5031091;28;20052;-77
2022/09/26 04:24:06;;;;;;;21.75;11.02;;;;;;;10.58;66.33;99268.66;5052447;28;20549;-75
2022/09/26 04:26:31;;;;;;;30.23;14.00;;;;;;;10.70;65.70;99273.50;5051133;28;20033;-75
2022/09/26 04:28:57;;;;;;;28.95;12.20;;;;;;;10.77;65.31;99270.97;5051195;28;20040;-75
2022/09/26 04:31:26;;;;;;;21.10;13.52;;;;;;;10.52;65.32;99266.06;5054116;28;20021;-74
2022/09/26 04:33:53;;;;;;;20.00;11.52;;;;;;;9.83;67.75;99259.66;5052703;28;20029;-73
2022/09/26 04:36:19;;;;;;;26.58;16.20;;;;;;;9.43;69.38;99257.19;5042255;28;20053;-75
2022/09/26 04:38:44;;;;;;;30.77;18.13;;;;;;;9.18;70.14;99251.34;5031347;28;20036;-73
2022/09/26 04:41:16;;;;;;;36.00;22.50;;;;;;;8.91;71.35;99253.31;5032245;28;20029;-74
2022/09/26 04:43:41;;;;;;;41.97;23.25;;;;;;;9.40;70.18;99261.47;5031987;28;20399;-76
2022/09/26 04:46:12;;;;;;;34.67;18.42;;;;;;;9.55;70.12;99268.47;5044885;28;20029;-73
2022/09/26 04:48:38;;;;;;;32.67;17.70;;;;;;;9.40;69.80;99279.00;5042397;28;20472;-71
2022/09/26 04:51:12;;;;;;;46.35;15.73;;;;;;;9.34;70.28;99277.56;5040084;28;20102;-73
2022/09/26 04:53:38;;;;;;;25.02;15.80;;;;;;;9.69;69.24;99274.69;5031667;28;20495;-74
2022/09/26 04:56:05;;;;;;;22.17;15.07;;;;;;;9.91;68.79;99274.75;5030462;28;20048;-73
2022/09/26 04:58:31;;;;;;;29.98;15.68;;;;;;;10.34;66.79;99282.09;5031125;28;20044;-71
2022/09/26 05:01:02;;;;;;;26.63;15.75;;;;;;;10.51;66.69;99300.78;5032802;28;20033;-72
2022/09/26 05:03:28;;;;;;;23.70;13.60;;;;;;;10.73;66.21;99295.19;5045366;28;20044;-74
2022/09/26 05:05:54;;;;;;;20.95;14.13;;;;;;;10.95;65.11;99292.06;5035417;28;20025;-74
2022/09/26 05:08:19;;;;;;;35.45;13.85;;;;;;;10.14;67.86;99299.63;5051154;28;20141;-73
2022/09/26 05:10:52;;;;;;;20.98;13.60;;;;;;;10.34;67.72;99304.47;5051029;28;20033;-74
2022/09/26 05:13:17;;;;;;;21.02;12.90;;;;;;;10.29;67.97;99293.47;5038699;28;20040;-73
2022/09/26 05:15:43;;;;;;;18.05;13.43;;;;;;;10.50;67.32;99296.34;5044817;28;20076;-73
2022/09/26 05:18:10;;;;;;;30.35;13.20;;;;;;;10.70;67.22;99291.09;5054868;28;20068;-74
2022/09/26 05:20:36;;;;;;;21.75;13.57;;;;;;;10.85;67.06;99288.84;5039413;28;20064;-74
2022/09/26 05:23:04;;;;;;;28.60;14.23;;;;;;;11.08;66.30;99281.72;5034640;28;20043;-74
2022/09/26 05:28:20;;;;;;;;;;;;;;;11.62;64.70;99279.22;5035718;28;20491;-74
2022/09/26 05:30:45;;;;;;;22.95;11.73;;;;;;;11.88;63.90;99283.69;5034966;28;19909;-74
2022/09/26 05:33:12;;;;;;;28.13;10.98;;;;;;;12.12;63.49;99276.50;5032801;28;20040;-74
2022/09/26 05:35:38;;;;;;;28.27;13.52;;;;;;;12.37;63.01;99271.72;5034253;28;20037;-74
2022/09/26 05:38:04;;;;;;;16.85;10.50;;;;;;;12.53;62.34;99270.97;5037040;28;20040;-75
2022/09/26 05:43:15;;;;;;;16.52;11.30;;;;;;;12.59;62.59;99266.78;5035506;28;20129;-74
2022/09/26 05:45:41;;;;;;;16.17;10.98;;;;;;;12.67;62.27;99268.66;5048831;28;20060;-74
2022/09/26 05:48:07;;;;;;;14.38;10.30;;;;;;;12.90;61.00;99274.53;5036648;28;20024;-74
2022/09/26 05:50:33;;;;;;;18.92;9.65;;;;;;;12.77;61.28;99262.50;5044729;28;20484;-74
2022/09/26 05:53:00;;;;;;;18.20;10.55;;;;;;;13.22;60.21;99242.13;5039576;28;20037;-74
2022/09/26 05:55:26;;;;;;;20.27;11.07;;;;;;;13.43;59.58;99250.31;5041239;28;20479;-74
2022/09/26 05:57:54;;;;;;;14.63;10.77;;;;;;;13.62;58.91;99247.66;5054590;28;20104;-79
2022/09/26 06:00:19;;;;;;;21.13;10.18;;;;;;;13.83;58.43;99246.56;5052972;28;20021;-75
2022/09/26 06:02:45;;;;;;;14.98;10.00;;;;;;;14.14;57.60;99236.50;5045540;28;20408;-74
2022/09/26 06:05:11;;;;;;;13.82;10.10;;;;;;;14.30;56.67;99233.66;5033846;28;20029;-74
2022/09/26 06:07:36;;;;;;;18.70;11.32;;;;;;;13.45;58.30;99250.81;5033778;28;20032;-73
2022/09/26 06:10:05;;;;;;;25.27;13.45;;;;;;;13.74;58.35;99248.75;5052970;28;20028;-74
2022/09/26 06:12:31;;;;;;;23.83;11.90;;;;;;;13.38;59.60;99262.63;5052629;28;20036;-74
2022/09/26 06:14:56;;;;;;;21.15;11.20;;;;;;;13.57;59.36;99256.34;5052821;28;20407;-74
2022/09/26 06:17:23;;;;;;;17.17;9.48;;;;;;;13.42;58.60;99259.94;5034315;28;20416;-74
2022/09/26 06:19:48;;;;;;;14.93;8.15;;;;;;;13.60;58.63;99263.25;5050706;28;20017;-74
2022/09/26 06:22:14;;;;;;;18.08;8.55;;;;;;;13.87;58.15;99257.91;5052003;28;20186;-73
2022/09/26 06:24:39;;;;;;;10.23;6.85;;;;;;;14.30;58.32;99256.16;5031001;28;20025;-72
2022/09/26 06:27:04;;;;;;;12.13;7.75;;;;;;;14.48;57.66;99252.13;5043561;28;20029;-74
2022/09/26 06:29:31;;;;;;;16.77;8.18;;;;;;;14.62;56.47;99248.81;5031708;28;20030;-74
2022/09/26 06:31:56;;;;;;;11.43;8.88;;;;;;;14.21;57.45;99257.53;5033055;28;20021;-73
2022/09/26 06:34:22;;;;;;;12.65;8.98;;;;;;;14.43;57.25;99253.25;5042949;28;20025;-74
2022/09/26 06:36:47;;;;;;;10.68;9.32;;;;;;;14.79;55.97;99254.06;5034748;28;20033;-75
2022/09/26 06:39:13;;;;;;;16.17;8.70;;;;;;;14.98;55.52;99255.25;5041283;28;20460;-74
2022/09/26 06:41:39;;;;;;;14.90;9.90;;;;;;;14.79;56.08;99253.25;5039974;28;20083;-72
2022/09/26 06:44:04;;;;;;;15.98;9.68;;;;;;;15.12;54.91;99263.19;5050120;28;20507;-71
2022/09/26 06:46:30;;;;;;;17.25;9.50;;;;;;;14.89;56.09;99275.19;5036495;28;20059;-72
2022/09/26 06:48:56;;;;;;;13.20;9.38;;;;;;;14.89;55.25;99272.38;5040692;28;20028;-72
2022/09/26 06:51:22;;;;;;;20.25;8.80;;;;;;;15.13;55.25;99270.44;5045415;28;20027;-72
2022/09/26 06:53:48;;;;;;;12.38;9.07;;;;;;;15.45;54.31;99270.28;5045917;28;20021;-79
2022/09/26 06:56:14;;;;;;;21.60;10.18;;;;;;;15.43;54.68;99272.63;5052106;28;20025;-78
2022/09/26 06:58:40;;;;;;;23.40;10.02;;;;;;;15.75;54.68;99266.78;5046253;28;20234;-80
2022/09/26 07:01:06;;;;;;;40.78;10.35;;;;;;;16.10;53.63;99254.53;5042799;28;20032;-72
2022/09/26 07:03:32;;;;;;;18.38;10.00;;;;;;;16.40;52.92;99242.47;5033306;28;20524;-70
2022/09/26 07:05:58;;;;;;;39.85;10.55;;;;;;;16.56;52.58;99247.97;5046949;28;20032;-72
2022/09/26 07:08:24;;;;;;;18.15;9.15;;;;;;;16.33;51.97;99248.03;5047118;28;20071;-71
2022/09/26 07:10:50;;;;;;;19.13;9.30;;;;;;;16.54;52.39;99244.72;5032620;28;20057;-73
2022/09/26 07:13:16;;;;;;;11.85;9.45;;;;;;;16.98;50.71;99228.34;5033808;28;20358;-71
2022/09/26 07:15:46;;;;;;;12.32;8.77;;;;;;;17.19;50.10;99232.66;5037181;28;20029;-70
2022/09/26 07:18:13;;;;;;;26.90;9.07;;;;;;;17.46;50.05;99239.00;5049787;28;20040;-79
2022/09/26 07:20:40;;;;;;;11.98;8.82;;;;;;;17.12;49.34;99241.84;5050525;28;20040;-79
2022/09/26 07:23:09;;;;;;;15.52;8.50;;;;;;;17.64;49.70;99252.53;5034129;28;20029;-74
2022/09/26 07:25:37;;;;;;;22.60;8.75;;;;;;;17.92;48.13;99251.16;5043572;28;20579;-79
2022/09/26 07:28:03;;;;;;;16.10;7.68;;;;;;;18.04;47.43;99239.56;5032320;28;20064;-79
2022/09/26 07:30:29;;;;;;;16.63;9.13;;;;;;;18.41;47.39;99245.50;5043069;28;20480;-78
2022/09/26 07:33:02;;;;;;;11.52;6.82;;;;;;;18.47;45.79;99255.28;5034026;28;20112;-79
2022/09/26 07:35:31;;;;;;;11.80;7.57;;;;;;;18.62;46.12;99248.47;5032508;28;20029;-80
2022/09/26 07:37:57;;;;;;;11.75;6.40;;;;;;;18.89;45.16;99250.25;5032575;28;20488;-80
2022/09/26 07:40:24;;;;;;;10.32;5.53;;;;;;;18.61;43.15;99246.03;5042563;28;20068;-79
2022/09/26 07:42:51;;;;;;;15.02;5.30;;;;;;;18.06;43.64;99214.53;5036266;28;20025;-73
2022/09/26 07:50:09;;;;;;;9.52;5.15;;;;;;;18.28;43.61;99242.16;5041755;28;20068;-76
2022/09/26 07:50:58;;;;;;;11.98;5.15;;;;;;;18.51;42.53;99213.63;5058243;28;20036;-75
2022/09/26 07:53:25;;;;;;;8.20;5.88;;;;;;;18.75;42.76;99231.94;5058971;28;20021;-73
2022/09/26 07:56:10;;;;;;;7.90;5.05;;;;;;;18.76;42.56;99222.25;5048075;28;20053;-76
2022/09/26 07:58:43;;;;;;;16.75;11.63;;;;;;;19.21;41.56;99199.38;5054355;28;20021;-75
2022/09/26 08:01:14;;;;;;;29.25;17.70;;;;;;;19.68;40.95;99203.50;5053751;28;20070;-69
2022/09/26 08:03:41;;;;;;;8.73;5.32;;;;;;;19.83;40.53;99199.47;5044831;28;20052;-75
2022/09/26 08:06:07;;;;;;;11.07;6.47;;;;;;;20.13;40.33;99200.28;5051322;28;20524;-76
2022/09/26 08:08:34;;;;;;;13.70;10.02;;;;;;;19.74;40.00;99197.03;5050463;28;20061;-74
2022/09/26 08:11:00;;;;;;;16.63;6.97;;;;;;;19.94;40.16;99191.00;5031603;28;20025;-74
2022/09/26 08:13:27;;;;;;;9.60;5.80;;;;;;;19.68;40.15;99175.13;5038201;28;20021;-73
2022/09/26 08:15:53;;;;;;;10.32;5.28;;;;;;;19.56;41.15;99170.69;5032355;28;20446;-73
2022/09/26 08:18:19;;;;;;;11.35;5.28;;;;;;;19.68;40.29;99163.78;5047027;28;20029;-73
2022/09/26 08:20:46;;;;;;;6.78;4.85;;;;;;;19.94;39.98;99162.59;5041994;28;20044;-74
2022/09/26 08:23:16;;;;;;;17.15;6.28;;;;;;;19.82;40.86;99163.00;5051532;28;20093;-74
2022/09/26 08:25:42;;;;;;;9.70;5.22;;;;;;;19.49;41.70;99163.78;5051647;28;20071;-73
2022/09/26 08:28:11;;;;;;;14.13;6.78;;;;;;;19.70;41.58;99170.69;5051410;28;20048;-73
2022/09/26 08:30:38;;;;;;;25.85;8.45;;;;;;;20.22;40.65;99177.19;5040031;28;20041;-73
2022/09/26 08:33:03;;;;;;;8.40;5.55;;;;;;;20.57;40.46;99169.75;5033328;28;20030;-74
2022/09/26 08:35:37;;;;;;;11.20;6.38;;;;;;;21.12;38.91;99159.81;5031383;28;20036;-72
2022/09/26 08:38:05;;;;;;;27.80;5.47;;;;;;;20.57;38.99;99162.06;5033698;28;20104;-71
2022/09/26 08:40:50;;;;;;;7.25;4.85;;;;;;;20.30;39.10;99167.41;5042178;28;20021;-69
2022/09/26 08:43:54;;;;;;;8.88;4.60;;;;;;;20.82;38.67;99163.22;5034213;28;20090;-72
2022/09/26 08:46:50;;;;;;;12.23;8.45;;;;;;;21.38;37.84;99156.81;5044327;28;20056;-70
2022/09/26 08:49:30;;;;;;;10.45;4.97;;;;;;;20.80;38.50;99152.25;5043496;28;20087;-69
2022/09/26 08:51:58;;;;;;;11.70;4.88;;;;;;;21.23;38.89;99145.53;5045368;28;20021;-70
2022/09/26 08:54:30;;;;;;;23.88;5.18;;;;;;;21.33;37.02;99152.38;5047920;28;20032;-68
2022/09/26 08:56:59;;;;;;;5.72;4.55;;;;;;;21.63;37.94;99142.41;5035579;28;20045;-71
2022/09/26 08:59:28;;;;;;;9.43;4.40;;;;;;;21.62;37.49;99146.47;5035050;28;20029;-72
2022/09/26 09:01:58;;;;;;;6.10;4.50;;;;;;;21.85;38.72;99142.25;5036443;28;20033;-73
2022/09/26 09:04:48;;;;;;;8.60;4.47;;;;;;;21.76;38.31;99134.19;5045174;28;20086;-73
2022/09/26 09:07:22;;;;;;;10.65;4.47;;;;;;;21.99;37.66;99135.59;5041181;28;20029;-71
2022/09/26 09:09:50;;;;;;;12.80;4.32;;;;;;;22.36;37.50;99116.91;5045365;28;20025;-70
2022/09/26 09:12:29;;;;;;;6.22;4.22;;;;;;;22.49;37.23;99122.91;5033329;28;20028;-71
2022/09/26 09:14:54;;;;;;;9.45;4.65;;;;;;;22.84;37.77;99132.25;5034515;28;20017;-72
2022/09/26 09:17:42;;;;;;;11.32;6.43;;;;;;;22.89;37.03;99113.03;5049530;28;20411;-71
2022/09/26 09:20:19;;;;;;;31.13;15.45;;;;;;;22.63;35.91;99106.84;5044424;28;20123;-71
2022/09/26 09:23:02;;;;;;;10.48;6.00;;;;;;;22.80;35.45;99108.66;5039399;28;20672;-72
2022/09/26 09:25:41;;;;;;;8.18;3.80;;;;;;;22.81;35.64;99107.44;5043846;28;20106;-70
2022/09/26 09:28:26;;;;;;;6.25;4.18;;;;;;;22.79;35.30;99114.81;5041691;28;20018;-72
2022/09/26 09:31:04;;;;;;;6.90;4.90;;;;;;;22.71;35.17;99125.50;5050458;28;20558;-72
2022/09/26 09:33:36;;;;;;;7.28;4.05;;;;;;;22.90;33.56;99100.38;5041262;28;20128;-73
2022/09/26 09:36:13;;;;;;;8.80;5.38;;;;;;;22.98;34.09;99099.84;5040454;28;20025;-74
2022/09/26 09:38:45;;;;;;;17.10;6.43;;;;;;;23.07;34.77;99101.38;5036169;28;20020;-71
2022/09/26 09:41:29;;;;;;;16.55;6.78;;;;;;;23.18;33.94;99095.53;5037978;28;20033;-71
2022/09/26 09:44:20;;;;;;;11.27;5.72;;;;;;;23.31;34.90;99090.03;5041289;28;20095;-73
2022/09/26 09:46:49;;;;;;;9.30;6.53;;;;;;;23.60;34.01;99076.09;5042675;28;20025;-73
2022/09/26 09:49:23;;;;;;;11.68;5.70;;;;;;;23.25;33.71;99067.69;5041640;28;20701;-73
2022/09/26 09:52:00;;;;;;;16.88;6.47;;;;;;;23.29;34.27;99059.09;5037010;28;20044;-71
2022/09/26 09:54:58;;;;;;;7.28;4.25;;;;;;;23.60;32.96;99058.19;5044067;28;20044;-73
2022/09/26 09:58:22;;;;;;;6.65;4.45;;;;;;;23.74;32.41;99046.50;5042419;28;20025;-73
2022/09/26 10:01:00;;;;;;;8.18;4.60;;;;;;;23.53;32.88;99039.13;5047334;28;20495;-73
2022/09/26 10:03:37;;;;;;;5.05;3.80;;;;;;;23.44;31.99;99044.59;5045800;28;20025;-72
2022/09/26 10:06:03;;;;;;;5.63;3.70;;;;;;;23.58;32.89;99049.22;5044842;28;20053;-74
2022/09/26 10:08:31;;;;;;;7.18;4.93;;;;;;;23.77;32.88;99044.81;5035365;28;20116;-72
2022/09/26 10:11:21;;;;;;;9.32;4.18;;;;;;;23.77;32.40;99034.22;5046034;28;20530;-71
2022/09/26 10:13:49;;;;;;;4.60;4.10;;;;;;;23.82;32.61;99036.53;5048885;28;20140;-72
2022/09/26 10:16:15;;;;;;;12.07;4.50;;;;;;;23.66;32.62;99031.56;5042407;28;20028;-73
2022/09/26 10:19:02;;;;;;;12.45;4.43;;;;;;;24.03;32.37;99048.03;5042698;28;20024;-72
2022/09/26 10:21:38;;;;;;;13.95;4.13;;;;;;;24.05;31.60;99042.69;5031788;28;20096;-73
2022/09/26 10:24:05;;;;;;;16.90;4.47;;;;;;;23.97;31.21;99037.09;5033431;28;20021;-71
2022/09/26 10:26:33;;;;;;;10.20;4.63;;;;;;;23.90;32.02;99031.53;5031653;28;20114;-73
2022/09/26 10:29:37;;;;;;;11.77;4.22;;;;;;;23.97;32.20;99024.88;5037927;28;20652;-72
2022/09/26 10:32:03;;;;;;;7.10;4.05;;;;;;;24.11;31.80;99018.06;5033461;28;20033;-74
2022/09/26 10:34:33;;;;;;;10.57;4.32;;;;;;;24.16;31.59;99023.31;5041813;28;20361;-75
2022/09/26 10:37:23;;;;;;;8.80;4.10;;;;;;;24.17;31.86;99030.63;5035154;28;20033;-73
2022/09/26 10:42:42;;;;;;;6.18;3.90;;;;;;;24.42;31.92;99022.75;5073232;28;20170;-74
2022/09/26 10:45:26;;;;;;;5.88;4.38;;;;;;;24.60;31.83;99017.47;5041997;28;20046;-74
2022/09/26 10:47:54;;;;;;;9.85;5.18;;;;;;;24.57;30.47;99012.63;5034362;28;20025;-74
2022/09/26 10:50:26;;;;;;;15.93;6.25;;;;;;;24.56;31.31;99018.78;5042941;28;20016;-74
2022/09/26 10:53:22;;;;;;;14.23;4.68;;;;;;;24.56;31.76;99018.78;5047356;28;20029;-73
2022/09/26 10:55:56;;;;;;;9.15;4.35;;;;;;;24.67;31.10;99007.91;5035355;28;20053;-73
2022/09/26 10:58:26;;;;;;;8.32;4.05;;;;;;;24.61;31.17;99016.22;5035269;28;20021;-74
2022/09/26 11:00:53;;;;;;;8.38;4.28;;;;;;;24.46;31.13;99004.28;5032563;28;20056;-74
2022/09/26 11:03:22;;;;;;;10.23;4.05;;;;;;;24.50;31.30;99007.88;5039962;28;20025;-72
2022/09/26 11:05:57;;;;;;;8.05;5.15;;;;;;;24.70;30.60;99001.31;5043606;28;20035;-74
2022/09/26 11:08:28;;;;;;;6.88;4.03;;;;;;;24.80;29.93;98988.84;5034046;28;20167;-70
2022/09/26 11:11:00;;;;;;;10.27;4.22;;;;;;;25.03;29.05;98991.97;5032554;28;20021;-73
2022/09/26 11:13:31;;;;;;;11.20;4.15;;;;;;;25.23;30.00;98989.06;5038096;28;20074;-74
2022/09/26 11:16:06;;;;;;;6.22;3.97;;;;;;;25.35;29.36;98981.78;5041632;28;20025;-74
2022/09/26 11:18:44;;;;;;;10.63;4.35;;;;;;;25.40;29.32;98974.72;5039945;28;20026;-74
2022/09/26 11:21:14;;;;;;;9.80;3.58;;;;;;;25.63;28.49;98980.25;5032929;28;20029;-74
2022/09/26 11:24:05;;;;;;;8.60;3.80;;;;;;;25.49;28.72;98974.94;5039840;28;20032;-74
2022/09/26 11:26:37;;;;;;;14.80;4.05;;;;;;;25.08;29.06;98975.09;5048245;28;20040;-72
2022/09/26 11:29:17;;;;;;;16.00;3.90;;;;;;;24.80;29.15;98976.63;5047014;28;20033;-72
2022/09/26 11:31:44;;;;;;;;;;;;;;;25.01;28.80;98974.47;5032730;28;20028;-74
2022/09/26 11:34:16;;;;;;;16.38;4.00;;;;;;;25.36;28.36;98969.91;5039902;28;19912;-73
2022/09/26 11:37:15;;;;;;;8.35;3.92;;;;;;;25.70;28.76;98961.25;5032886;28;20029;-74
2022/09/26 11:39:51;;;;;;;6.70;3.60;;;;;;;25.68;27.55;98964.59;5046230;28;20043;-72
2022/09/26 11:43:05;;;;;;;9.90;4.25;;;;;;;25.49;28.33;98963.47;5060803;28;20442;-74
2022/09/26 11:45:55;;;;;;;10.57;4.18;;;;;;;25.35;28.74;98954.00;5038650;28;20435;-79
2022/09/26 11:48:36;;;;;;;6.65;3.97;;;;;;;25.17;28.97;98957.31;5044720;28;20048;-72
2022/09/26 11:51:01;;;;;;;10.40;3.63;;;;;;;25.56;28.60;98945.28;5046026;28;20024;-73
2022/09/26 11:53:53;;;;;;;9.25;3.70;;;;;;;25.69;28.02;98928.97;5043374;28;20087;-72
2022/09/26 11:56:36;;;;;;;6.80;3.60;;;;;;;25.32;28.64;98923.38;5032043;28;20025;-73
2022/09/26 11:59:51;;;;;;;6.68;3.30;;;;;;;25.26;28.97;98922.34;5033596;28;20542;-72
2022/09/26 12:02:42;;;;;;;11.07;4.93;;;;;;;25.40;28.50;98926.06;5047734;28;20038;-72
2022/09/26 12:05:47;;;;;;;21.92;4.43;;;;;;;25.33;29.05;98921.34;5031592;28;20029;-72
2022/09/26 12:08:29;;;;;;;8.43;4.72;;;;;;;25.31;29.19;98930.38;5041422;28;20040;-72